Gauley Mills, West Virginia
Current Conditions -  °F | °C
As of 9:15 PM on Saturday 20 Dec 2014 (Local Time) from KLWB Reporting Station
Overcast Overcast  
Wind Chill: 35°   Ceiling: 5000
Heat Index: 35°   Visibility: 10mi
Dew Point: 30°   Wind: 0mph
Humidity: 84%   Direction: NA
Pressure: 30.19"   Gusts: NA
Location:  38.3791°N, 80.587°W
Report Text: KLWB 210215Z AUTO 00000KT 10SM OVC050 02/M01 A3019 RMK AO2 T00151010
Loading
Personal Weather Stations






























Interactive Weather Map New forecast layout! Learn more

10-Day Weather Forecast

Advertisements
Track Severe Weather on mobile